createdAt,value
2019-04-11T00:01:56.909Z,46.76
2019-04-11T00:04:30.221Z,47.04
2019-04-11T00:07:03.662Z,47.26
2019-04-11T00:09:35.863Z,47.52
2019-04-11T00:12:08.397Z,47.47
2019-04-11T00:14:42.085Z,47.76
2019-04-11T00:17:14.331Z,48.06
2019-04-11T00:19:47.412Z,48.24
2019-04-11T00:22:19.632Z,48.46
2019-04-11T00:24:51.655Z,48.52
2019-04-11T00:27:24.618Z,48.56
2019-04-11T00:29:56.639Z,48.59
2019-04-11T00:32:29.574Z,48.60
2019-04-11T00:35:01.777Z,48.94
2019-04-11T00:37:34.708Z,48.92
2019-04-11T00:40:08.895Z,48.88
2019-04-11T00:42:41.252Z,49.45
2019-04-11T00:45:14.044Z,49.42
2019-04-11T00:47:46.956Z,49.35
2019-04-11T00:50:19.159Z,49.38
2019-04-11T00:52:51.675Z,49.70
2019-04-11T00:55:25.019Z,49.62
2019-04-11T00:57:57.126Z,49.89
2019-04-11T01:00:29.251Z,50.09
2019-04-11T01:03:02.023Z,50.28
2019-04-11T01:05:35.151Z,50.04
2019-04-11T01:08:07.345Z,49.97
2019-04-11T01:10:39.789Z,49.85
2019-04-11T01:13:11.966Z,49.73
2019-04-11T01:15:49.685Z,50.14
2019-04-11T01:18:22.242Z,50.27
2019-04-11T01:20:55.993Z,50.46
2019-04-11T01:23:28.956Z,50.49
2019-04-11T01:26:01.309Z,50.50
2019-04-11T01:28:34.387Z,50.09
2019-04-11T01:31:09.475Z,49.99
2019-04-11T01:33:42.173Z,50.03
2019-04-11T01:36:15.090Z,49.95
2019-04-11T01:38:51.336Z,50.16
2019-04-11T01:41:24.564Z,50.18
2019-04-11T01:44:02.158Z,50.45
2019-04-11T01:46:30.618Z,50.52
2019-04-11T01:49:23.942Z,50.64
2019-04-11T01:51:56.095Z,50.56
2019-04-11T01:54:28.236Z,50.54
2019-04-11T01:57:01.334Z,50.56
2019-04-11T01:59:35.476Z,51.00
2019-04-11T02:02:30.427Z,51.21
2019-04-11T02:05:27.527Z,51.57
2019-04-11T02:08:00.874Z,51.96
2019-04-11T02:10:33.491Z,52.16
2019-04-11T02:13:05.825Z,52.64
2019-04-11T02:15:41.312Z,53.12
2019-04-11T02:18:13.377Z,53.70
2019-04-11T02:20:45.563Z,54.75
2019-04-11T02:23:27.081Z,55.07
2019-04-11T02:26:27.302Z,55.29
2019-04-11T02:29:01.287Z,55.50
2019-04-11T02:31:34.925Z,56.08
2019-04-11T02:34:08.670Z,56.86
2019-04-11T02:36:42.527Z,56.92
2019-04-11T02:39:19.180Z,57.01
2019-04-11T02:41:50.596Z,57.57
2019-04-11T02:44:45.756Z,58.18
2019-04-11T02:47:05.582Z,58.71
2019-04-11T02:49:33.058Z,58.79
2019-04-11T02:52:06.925Z,59.22
2019-04-11T02:54:40.817Z,59.47
2019-04-11T02:57:14.099Z,58.93
2019-04-11T02:59:48.789Z,59.03
2019-04-11T03:02:21.479Z,58.76
2019-04-11T03:04:55.662Z,58.94
2019-04-11T03:07:29.905Z,58.74
2019-04-11T03:10:03.142Z,58.50
2019-04-11T03:12:38.138Z,58.25
2019-04-11T03:15:28.919Z,58.24
2019-04-11T03:17:46.168Z,58.40
2019-04-11T03:20:26.383Z,58.35
2019-04-11T03:22:57.449Z,58.58
2019-04-11T03:25:25.953Z,58.40
2019-04-11T03:27:58.977Z,58.38
2019-04-11T03:30:46.657Z,58.88
2019-04-11T03:38:36.811Z,59.83
2019-04-11T03:41:08.765Z,60.32
2019-04-11T03:43:33.693Z,60.43
2019-04-11T03:46:16.367Z,60.52
2019-04-11T03:48:45.004Z,60.71
2019-04-11T03:51:05.100Z,61.07
2019-04-11T03:53:37.406Z,61.38
2019-04-11T03:56:12.011Z,61.44
2019-04-11T03:58:46.042Z,61.74
2019-04-11T04:01:18.919Z,61.94
2019-04-11T04:03:53.939Z,62.35
2019-04-11T04:06:26.139Z,62.49
2019-04-11T04:08:58.522Z,62.50
2019-04-11T04:11:32.601Z,62.72
2019-04-11T04:14:26.220Z,63.19
2019-04-11T04:17:27.769Z,63.46
2019-04-11T04:20:11.501Z,63.23
2019-04-11T04:23:00.932Z,63.23
2019-04-11T04:25:34.729Z,63.17
2019-04-11T04:28:07.498Z,63.02
2019-04-11T04:30:42.716Z,63.24
2019-04-11T04:33:14.552Z,63.47
2019-04-11T04:35:47.498Z,63.78
2019-04-11T04:38:21.076Z,63.69
2019-04-11T04:41:12.853Z,63.38
2019-04-11T04:43:34.022Z,62.94
2019-04-11T04:46:23.726Z,63.13
2019-04-11T04:48:43.332Z,63.00
2019-04-11T04:51:16.299Z,62.95
2019-04-11T04:53:50.103Z,63.30
2019-04-11T04:56:26.439Z,63.40
2019-04-11T04:58:58.234Z,63.62
2019-04-11T05:01:31.588Z,63.79
2019-04-11T05:04:04.778Z,63.65
2019-04-11T05:06:38.776Z,63.56
2019-04-11T05:09:12.634Z,63.41
2019-04-11T05:11:46.516Z,63.50
2019-04-11T05:14:18.981Z,63.21
2019-04-11T05:16:52.559Z,62.91
2019-04-11T05:19:25.517Z,62.88
2019-04-11T05:21:59.797Z,62.67
2019-04-11T05:24:32.034Z,63.03
2019-04-11T05:27:04.195Z,62.98
2019-04-11T05:29:36.275Z,62.77
2019-04-11T05:32:09.284Z,62.59
2019-04-11T05:34:41.498Z,62.41
2019-04-11T05:37:16.893Z,62.10
2019-04-11T05:39:48.854Z,62.23
2019-04-11T05:42:24.973Z,62.19
2019-04-11T05:44:54.810Z,61.79
2019-04-11T05:47:27.638Z,61.76
2019-04-11T05:50:11.590Z,61.87
2019-04-11T05:52:42.102Z,62.20
2019-04-11T05:55:15.509Z,62.03
2019-04-11T05:57:50.140Z,62.38
2019-04-11T06:00:41.168Z,62.13
2019-04-11T06:03:13.449Z,61.92
2019-04-11T06:06:03.305Z,61.66
2019-04-11T06:08:37.847Z,61.69
2019-04-11T06:11:41.230Z,61.68
2019-04-11T06:14:33.105Z,60.88
2019-04-11T06:17:09.189Z,61.44
2019-04-11T06:20:18.260Z,61.27
2019-04-11T06:23:19.170Z,61.69
2019-04-11T06:26:22.995Z,62.47
2019-04-11T06:29:01.262Z,63.17
2019-04-11T06:31:51.588Z,63.50
2019-04-11T06:34:26.506Z,63.50
2019-04-11T06:37:17.230Z,62.60
2019-04-11T06:39:57.739Z,62.66
2019-04-11T06:42:47.643Z,62.87
2019-04-11T06:45:37.787Z,62.45
2019-04-11T06:48:30.406Z,62.21
2019-04-11T06:51:15.720Z,62.33
2019-04-11T06:53:54.665Z,61.81
2019-04-11T06:56:37.968Z,61.78
2019-04-11T06:59:14.450Z,61.94
2019-04-11T07:01:47.602Z,62.29
2019-04-11T07:04:32.071Z,61.99
2019-04-11T07:07:08.513Z,61.31
2019-04-11T07:09:50.132Z,61.74
2019-04-11T07:12:26.638Z,61.27
2019-04-11T07:15:18.885Z,60.88
2019-04-11T07:18:09.866Z,61.42
2019-04-11T07:21:02.876Z,60.45
2019-04-11T07:23:53.408Z,59.98
2019-04-11T07:26:31.510Z,59.57
2019-04-11T07:29:23.741Z,59.29
2019-04-11T07:32:16.183Z,59.23
2019-04-11T07:35:06.440Z,59.52
2019-04-11T07:37:40.689Z,60.21
2019-04-11T07:40:31.926Z,60.81
2019-04-11T07:43:11.527Z,61.08
2019-04-11T07:46:12.717Z,61.21
2019-04-11T07:48:44.875Z,60.88
2019-04-11T07:51:27.633Z,60.69
2019-04-11T07:54:02.649Z,60.82
2019-04-11T07:56:59.674Z,62.06
2019-04-11T07:59:53.674Z,62.21
2019-04-11T08:02:43.493Z,62.19
2019-04-11T08:05:38.760Z,61.72
2019-04-11T08:08:30.238Z,62.06
2019-04-11T08:11:15.847Z,62.02
2019-04-11T08:14:06.367Z,61.20
2019-04-11T08:16:57.387Z,60.45
2019-04-11T08:20:04.999Z,60.09
2019-04-11T08:22:39.378Z,59.79
2019-04-11T08:25:24.945Z,60.76
2019-04-11T08:28:04.372Z,61.41
2019-04-11T08:30:41.680Z,61.75
2019-04-11T08:33:14.180Z,62.09
2019-04-11T08:36:13.726Z,61.62
2019-04-11T08:38:46.714Z,61.21
2019-04-11T08:41:42.535Z,60.40
2019-04-11T08:44:21.324Z,59.16
2019-04-11T08:46:58.135Z,57.77
2019-04-11T08:49:37.592Z,56.79
2019-04-11T08:52:22.401Z,55.99
2019-04-11T08:55:04.226Z,55.23
2019-04-11T08:57:40.940Z,54.68
2019-04-11T09:00:28.584Z,53.78
2019-04-11T09:03:13.529Z,53.85
2019-04-11T09:06:06.397Z,53.38
2019-04-11T09:09:00.304Z,52.49
2019-04-11T09:11:42.167Z,52.62
2019-04-11T09:14:32.509Z,52.10
2019-04-11T09:17:26.153Z,51.26
2019-04-11T09:20:29.798Z,50.38
2019-04-11T09:23:06.649Z,50.44
2019-04-11T09:25:57.591Z,49.18
2019-04-11T09:28:44.203Z,48.84
2019-04-11T09:31:38.135Z,48.91
2019-04-11T09:34:33.623Z,48.77
2019-04-11T09:37:18.504Z,47.58
2019-04-11T09:40:26.279Z,46.81
2019-04-11T09:43:15.967Z,46.39
2019-04-11T09:46:18.582Z,46.36
2019-04-11T09:49:22.707Z,45.49
2019-04-11T09:52:12.269Z,45.33
2019-04-11T09:54:54.898Z,45.42
2019-04-11T09:57:38.573Z,44.97
2019-04-11T10:00:30.427Z,44.99
2019-04-11T10:03:23.687Z,44.35
2019-04-11T10:06:15.772Z,44.54
2019-04-11T10:08:56.049Z,43.71
2019-04-11T10:11:59.156Z,43.49
2019-04-11T10:14:31.696Z,43.43
2019-04-11T10:17:40.263Z,43.20
2019-04-11T10:20:16.104Z,44.02
2019-04-11T10:23:08.148Z,43.70
2019-04-11T10:25:48.139Z,41.38
2019-04-11T10:28:37.937Z,41.43
2019-04-11T10:31:15.034Z,40.49
2019-04-11T10:34:09.156Z,39.91
2019-04-11T10:36:49.468Z,39.58
2019-04-11T10:40:00.137Z,39.33
2019-04-11T10:42:34.645Z,40.04
2019-04-11T10:45:31.148Z,40.86
2019-04-11T10:48:05.523Z,40.18
2019-04-11T10:51:06.612Z,40.18
2019-04-11T10:53:39.464Z,40.39
2019-04-11T10:56:34.659Z,40.80
2019-04-11T10:59:07.168Z,41.25
2019-04-11T11:02:01.693Z,40.86
2019-04-11T11:04:36.799Z,40.86
2019-04-11T11:07:12.963Z,40.59
2019-04-11T11:10:07.318Z,39.79
2019-04-11T11:13:08.226Z,39.45
2019-04-11T11:15:50.243Z,38.85
2019-04-11T11:19:15.005Z,37.92
2019-04-11T11:21:19.772Z,37.08
2019-04-11T11:24:10.738Z,37.26
2019-04-11T11:26:43.254Z,37.88
2019-04-11T11:29:37.289Z,37.31
2019-04-11T11:32:20.967Z,37.02
2019-04-11T11:35:12.818Z,36.40
2019-04-11T11:37:50.803Z,35.70
2019-04-11T11:40:44.842Z,36.42
2019-04-11T11:43:19.525Z,37.34
2019-04-11T11:46:29.076Z,37.10
2019-04-11T11:49:37.648Z,35.99
2019-04-11T11:52:13.115Z,35.09
2019-04-11T11:54:53.668Z,35.85
2019-04-11T11:57:37.623Z,35.84
2019-04-11T12:00:16.985Z,35.42
2019-04-11T12:03:05.213Z,35.40
2019-04-11T12:05:48.174Z,35.32
2019-04-11T12:08:39.201Z,34.71
2019-04-11T12:11:13.609Z,34.82
2019-04-11T12:14:04.592Z,34.48
2019-04-11T12:17:14.332Z,34.81
2019-04-11T12:20:16.456Z,35.11
2019-04-11T12:22:50.412Z,35.35
2019-04-11T12:25:34.777Z,34.44
2019-04-11T12:28:25.775Z,34.55
2019-04-11T12:31:03.913Z,34.25
2019-04-11T12:33:54.011Z,34.61
2019-04-11T12:36:32.605Z,35.20
2019-04-11T12:39:38.653Z,35.44
2019-04-11T12:42:16.552Z,35.63
2019-04-11T12:45:06.684Z,35.54
2019-04-11T12:47:44.614Z,36.37
2019-04-11T12:50:34.636Z,36.63
2019-04-11T12:53:08.848Z,36.89
2019-04-11T12:56:02.749Z,37.09
2019-04-11T12:58:43.090Z,36.62
2019-04-11T13:01:40.845Z,35.95
2019-04-11T13:04:32.603Z,35.15
2019-04-11T13:07:31.452Z,35.26
2019-04-11T13:10:13.211Z,35.13
2019-04-11T13:13:04.056Z,35.60
2019-04-11T13:15:57.992Z,35.26
2019-04-11T13:18:49.881Z,35.30
2019-04-11T13:21:28.455Z,35.45
2019-04-11T13:24:22.195Z,35.02
2019-04-11T13:27:10.709Z,33.98
2019-04-11T13:30:04.501Z,34.24
2019-04-11T13:32:43.944Z,34.43
2019-04-11T13:35:24.807Z,34.15
2019-04-11T13:38:18.715Z,35.13
2019-04-11T13:41:16.011Z,35.85
2019-04-11T13:43:51.751Z,35.84
2019-04-11T13:46:46.528Z,35.97
2019-04-11T13:49:46.667Z,35.99
2019-04-11T13:52:37.584Z,36.16
2019-04-11T13:55:15.238Z,36.16
2019-04-11T13:58:12.030Z,36.22
2019-04-11T14:00:57.744Z,36.40
2019-04-11T14:03:49.282Z,36.23
2019-04-11T14:06:26.767Z,36.19
2019-04-11T14:09:20.725Z,36.55
2019-04-11T14:11:54.900Z,36.70
2019-04-11T14:14:32.934Z,36.60
2019-04-11T14:17:27.877Z,36.31
2019-04-11T14:20:28.561Z,36.41
2019-04-11T14:23:14.114Z,36.46
2019-04-11T14:26:05.106Z,36.26
2019-04-11T14:28:40.807Z,35.97
2019-04-11T14:31:30.548Z,36.30
2019-04-11T14:34:08.412Z,36.61
2019-04-11T14:36:58.209Z,36.60
2019-04-11T14:39:35.210Z,36.95
2019-04-11T14:42:31.818Z,36.68
2019-04-11T14:45:07.503Z,36.86
2019-04-11T14:47:56.937Z,36.26
2019-04-11T14:50:40.885Z,36.57
2019-04-11T14:53:31.024Z,36.67
2019-04-11T14:56:05.977Z,37.26
2019-04-11T14:59:06.086Z,37.38
2019-04-11T15:01:39.120Z,37.56
2019-04-11T15:04:28.310Z,37.45
2019-04-11T15:07:00.675Z,37.71
2019-04-11T15:09:41.119Z,37.71
2019-04-11T15:12:18.594Z,37.67
2019-04-11T15:15:20.017Z,37.83
2019-04-11T15:17:57.282Z,38.06
2019-04-11T15:20:54.918Z,38.21
2019-04-11T15:23:45.603Z,38.47
2019-04-11T15:26:45.471Z,38.54
2019-04-11T15:29:30.509Z,38.36
2019-04-11T15:32:20.366Z,38.92
2019-04-11T15:34:54.817Z,39.35
2019-04-11T15:37:44.713Z,39.68
2019-04-11T15:40:20.330Z,39.98
2019-04-11T15:43:11.587Z,39.99
2019-04-11T15:46:10.116Z,39.69
2019-04-11T15:49:00.919Z,39.85
2019-04-11T15:51:38.357Z,40.63
2019-04-11T15:54:34.814Z,41.27
2019-04-11T15:57:12.687Z,41.51
2019-04-11T16:00:07.750Z,41.22
2019-04-11T16:02:49.686Z,41.23
2019-04-11T16:05:41.942Z,41.30
2019-04-11T16:08:38.785Z,41.17
2019-04-11T16:11:31.409Z,41.22
2019-04-11T16:14:11.868Z,41.50
2019-04-11T16:17:05.315Z,41.15
2019-04-11T16:19:51.711Z,41.41
2019-04-11T16:22:45.243Z,41.52
2019-04-11T16:25:19.017Z,41.78
2019-04-11T16:28:11.435Z,41.78
2019-04-11T16:31:09.782Z,41.82
2019-04-11T16:34:04.476Z,41.87
2019-04-11T16:36:51.414Z,41.98
2019-04-11T16:39:47.918Z,41.79
2019-04-11T16:42:36.526Z,41.89
2019-04-11T16:45:40.832Z,42.17
2019-04-11T16:48:13.051Z,42.28
2019-04-11T16:50:45.267Z,41.97
2019-04-11T16:53:17.530Z,42.05
2019-04-11T16:55:50.118Z,42.10
2019-04-11T16:58:22.164Z,41.47
2019-04-11T17:00:54.303Z,41.83
2019-04-11T17:03:26.379Z,41.55
2019-04-11T17:06:07.692Z,41.34
2019-04-11T17:08:51.672Z,41.00
2019-04-11T17:11:26.720Z,40.61
2019-04-11T17:13:57.998Z,40.77
2019-04-11T17:16:31.001Z,40.55
2019-04-11T17:19:05.535Z,40.80
2019-04-11T17:21:43.062Z,40.86
2019-04-11T17:24:11.213Z,40.86
2019-04-11T17:26:43.189Z,41.05
2019-04-11T17:29:15.242Z,41.02
2019-04-11T17:31:47.348Z,41.17
2019-04-11T17:34:20.189Z,41.20
2019-04-11T17:36:52.156Z,41.15
2019-04-11T17:39:24.107Z,41.06
2019-04-11T17:41:56.124Z,41.31
2019-04-11T17:44:28.264Z,41.27
2019-04-11T17:47:02.540Z,41.25
2019-04-11T17:49:34.578Z,41.29
2019-04-11T17:52:08.155Z,41.19
2019-04-11T17:54:40.426Z,41.13
2019-04-11T17:57:12.523Z,41.32
2019-04-11T17:59:44.547Z,41.30
2019-04-11T18:02:16.736Z,41.26
2019-04-11T18:04:49.869Z,41.15
2019-04-11T18:07:21.862Z,41.31
2019-04-11T18:09:56.020Z,41.22
2019-04-11T18:12:27.841Z,41.26
2019-04-11T18:15:02.305Z,41.30
2019-04-11T18:17:34.949Z,41.35
2019-04-11T18:20:08.489Z,41.33
2019-04-11T18:22:41.034Z,41.16
2019-04-11T18:25:13.642Z,41.18
2019-04-11T18:27:45.812Z,41.39
2019-04-11T18:30:17.955Z,41.66
2019-04-11T18:32:50.285Z,42.03
2019-04-11T18:35:22.412Z,41.96
2019-04-11T18:37:54.483Z,42.04
2019-04-11T18:40:27.047Z,41.90
2019-04-11T18:42:59.096Z,41.93
2019-04-11T18:45:31.313Z,41.78
2019-04-11T18:48:03.292Z,41.83
2019-04-11T18:50:35.250Z,41.84
2019-04-11T18:53:07.560Z,42.28
2019-04-11T18:55:40.047Z,42.51
2019-04-11T18:58:11.997Z,42.90
2019-04-11T19:00:44.423Z,42.60
2019-04-11T19:03:16.663Z,42.91
2019-04-11T19:05:48.759Z,42.94
2019-04-11T19:08:21.150Z,42.74
2019-04-11T19:10:53.357Z,43.02
2019-04-11T19:13:25.436Z,43.04
2019-04-11T19:15:57.525Z,43.21
2019-04-11T19:18:29.602Z,43.46
2019-04-11T19:21:01.736Z,43.58
2019-04-11T19:23:33.679Z,43.31
2019-04-11T19:26:05.721Z,43.54
2019-04-11T19:28:37.929Z,43.80
2019-04-11T19:31:12.324Z,44.01
2019-04-11T19:33:44.176Z,43.96
2019-04-11T19:36:16.220Z,43.91
2019-04-11T19:38:48.292Z,43.82
2019-04-11T19:41:20.935Z,43.86
2019-04-11T19:43:53.307Z,44.06
2019-04-11T19:46:25.488Z,43.84
2019-04-11T19:48:59.500Z,43.94
2019-04-11T19:51:31.277Z,44.11
2019-04-11T19:54:03.889Z,44.35
2019-04-11T19:56:47.215Z,44.72
2019-04-11T19:59:19.214Z,45.22
2019-04-11T20:01:53.177Z,44.83
2019-04-11T20:04:25.190Z,45.02
2019-04-11T20:06:57.388Z,45.01
2019-04-11T20:09:29.427Z,45.45
2019-04-11T20:12:01.777Z,45.32
2019-04-11T20:14:34.937Z,45.06
2019-04-11T20:17:09.189Z,45.39
2019-04-11T20:19:41.088Z,45.38
2019-04-11T20:22:13.171Z,45.05
2019-04-11T20:24:46.865Z,44.67
2019-04-11T20:27:20.258Z,44.68
2019-04-11T20:29:55.246Z,44.86
2019-04-11T20:32:26.880Z,44.50
2019-04-11T20:34:58.982Z,44.48
2019-04-11T20:37:39.055Z,44.54
2019-04-11T20:40:05.477Z,44.72
2019-04-11T20:42:37.751Z,44.97
2019-04-11T20:45:10.657Z,44.90
2019-04-11T20:47:42.752Z,44.81
2019-04-11T20:50:18.237Z,45.26
2019-04-11T20:52:50.920Z,44.57
2019-04-11T20:55:23.013Z,44.70
2019-04-11T20:57:55.093Z,44.64
2019-04-11T21:00:27.405Z,44.29
2019-04-11T21:02:59.993Z,43.97
2019-04-11T21:05:33.993Z,43.91
2019-04-11T21:08:06.138Z,44.04
2019-04-11T21:10:38.223Z,44.14
2019-04-11T21:13:10.495Z,43.62
2019-04-11T21:15:43.468Z,43.74
2019-04-11T21:18:15.796Z,43.50
2019-04-11T21:20:47.837Z,43.74
2019-04-11T21:23:24.698Z,44.03
2019-04-11T21:25:53.577Z,44.32
2019-04-11T21:28:27.863Z,44.16
2019-04-11T21:31:00.740Z,44.17
2019-04-11T21:33:34.955Z,43.87
2019-04-11T21:36:07.000Z,43.91
2019-04-11T21:38:39.457Z,44.15
2019-04-11T21:41:12.833Z,44.20
2019-04-11T21:43:44.831Z,44.27
2019-04-11T21:46:18.767Z,44.29
2019-04-11T21:48:52.706Z,44.48
2019-04-11T21:51:24.766Z,44.32
2019-04-11T21:53:56.804Z,44.00
2019-04-11T21:56:29.044Z,44.07
2019-04-11T21:59:01.282Z,43.96
2019-04-11T22:01:34.011Z,44.04
2019-04-11T22:04:06.199Z,44.57
2019-04-11T22:06:38.303Z,44.38
2019-04-11T22:09:11.034Z,44.50
2019-04-11T22:11:42.983Z,44.38
2019-04-11T22:14:14.973Z,44.18
2019-04-11T22:16:46.884Z,44.00
2019-04-11T22:19:18.933Z,44.09
2019-04-11T22:21:51.310Z,44.04
2019-04-11T22:24:23.273Z,44.39
2019-04-11T22:26:55.300Z,44.46
2019-04-11T22:29:28.737Z,44.69
2019-04-11T22:32:00.720Z,44.78
2019-04-11T22:34:44.930Z,44.76
2019-04-11T22:37:16.973Z,44.60
2019-04-11T22:39:48.901Z,44.86
2019-04-11T22:42:21.343Z,45.05
2019-04-11T22:44:53.302Z,45.24
2019-04-11T22:47:25.456Z,45.27
2019-04-11T22:49:57.402Z,45.57
2019-04-11T22:52:29.509Z,45.32
2019-04-11T22:55:01.596Z,45.60
2019-04-11T22:57:33.635Z,45.25
2019-04-11T23:00:09.208Z,45.61
2019-04-11T23:03:00.009Z,45.54
2019-04-11T23:05:32.196Z,45.58
2019-04-11T23:08:04.167Z,45.50
2019-04-11T23:10:36.628Z,45.70
2019-04-11T23:13:08.593Z,45.95
2019-04-11T23:15:43.373Z,46.08
2019-04-11T23:18:16.090Z,45.80
2019-04-11T23:20:48.034Z,45.86
2019-04-11T23:23:20.439Z,45.74
2019-04-11T23:25:52.604Z,45.70
2019-04-11T23:28:24.550Z,45.98
2019-04-11T23:30:56.626Z,45.89
2019-04-11T23:33:28.680Z,45.52
2019-04-11T23:36:01.106Z,45.91
2019-04-11T23:38:33.286Z,46.24
2019-04-11T23:41:05.320Z,46.35
2019-04-11T23:43:37.262Z,46.66
2019-04-11T23:46:09.240Z,46.79
2019-04-11T23:48:41.218Z,46.55
2019-04-11T23:51:13.170Z,46.74
2019-04-11T23:53:47.004Z,46.86
2019-04-11T23:56:19.010Z,46.78
2019-04-11T23:58:51.389Z,46.78
